sensor_id;sensor_type;location;lat;lon;timestamp;P1;durP1;ratioP1;P2;durP2;ratioP2
56927;SDS011;60850;52.502;13.426;2022-07-05T00:01:42;8.13;;;4.78;;
56927;SDS011;60850;52.502;13.426;2022-07-05T00:04:09;8.45;;;3.38;;
56927;SDS011;60850;52.502;13.426;2022-07-05T00:06:36;9.27;;;3.35;;
56927;SDS011;60850;52.502;13.426;2022-07-05T00:09:24;8.10;;;3.30;;
56927;SDS011;60850;52.502;13.426;2022-07-05T00:11:51;5.22;;;3.35;;
56927;SDS011;60850;52.502;13.426;2022-07-05T00:14:18;5.32;;;3.03;;
56927;SDS011;60850;52.502;13.426;2022-07-05T00:16:44;9.77;;;3.40;;
56927;SDS011;60850;52.502;13.426;2022-07-05T00:19:11;6.53;;;3.53;;
56927;SDS011;60850;52.502;13.426;2022-07-05T00:21:38;6.38;;;3.03;;
56927;SDS011;60850;52.502;13.426;2022-07-05T00:24:05;6.95;;;3.25;;
56927;SDS011;60850;52.502;13.426;2022-07-05T00:26:34;4.90;;;2.95;;
56927;SDS011;60850;52.502;13.426;2022-07-05T00:29:00;5.55;;;3.03;;
56927;SDS011;60850;52.502;13.426;2022-07-05T00:31:27;8.52;;;2.95;;
56927;SDS011;60850;52.502;13.426;2022-07-05T00:33:54;5.88;;;2.50;;
56927;SDS011;60850;52.502;13.426;2022-07-05T00:36:21;6.30;;;2.97;;
56927;SDS011;60850;52.502;13.426;2022-07-05T00:38:48;5.20;;;2.80;;
56927;SDS011;60850;52.502;13.426;2022-07-05T00:41:14;6.40;;;3.20;;
56927;SDS011;60850;52.502;13.426;2022-07-05T00:43:52;7.25;;;3.10;;
56927;SDS011;60850;52.502;13.426;2022-07-05T00:46:20;5.85;;;3.35;;
56927;SDS011;60850;52.502;13.426;2022-07-05T00:48:47;5.65;;;3.47;;
56927;SDS011;60850;52.502;13.426;2022-07-05T00:51:14;6.57;;;3.53;;
56927;SDS011;60850;52.502;13.426;2022-07-05T00:53:41;7.18;;;3.70;;
56927;SDS011;60850;52.502;13.426;2022-07-05T00:56:08;9.05;;;3.35;;
56927;SDS011;60850;52.502;13.426;2022-07-05T00:58:35;4.55;;;3.03;;
56927;SDS011;60850;52.502;13.426;2022-07-05T01:01:05;6.97;;;3.30;;
56927;SDS011;60850;52.502;13.426;2022-07-05T01:03:33;6.18;;;3.08;;
56927;SDS011;60850;52.502;13.426;2022-07-05T01:06:00;5.22;;;3.22;;
56927;SDS011;60850;52.502;13.426;2022-07-05T01:08:29;6.60;;;3.53;;
56927;SDS011;60850;52.502;13.426;2022-07-05T01:10:57;5.38;;;3.08;;
56927;SDS011;60850;52.502;13.426;2022-07-05T01:13:24;6.95;;;2.80;;
56927;SDS011;60850;52.502;13.426;2022-07-05T01:15:52;7.03;;;2.83;;
56927;SDS011;60850;52.502;13.426;2022-07-05T01:18:21;4.57;;;2.72;;
56927;SDS011;60850;52.502;13.426;2022-07-05T01:20:48;5.00;;;2.63;;
56927;SDS011;60850;52.502;13.426;2022-07-05T01:23:17;4.65;;;2.55;;
56927;SDS011;60850;52.502;13.426;2022-07-05T01:25:46;5.25;;;2.30;;
56927;SDS011;60850;52.502;13.426;2022-07-05T01:28:14;4.75;;;2.67;;
56927;SDS011;60850;52.502;13.426;2022-07-05T01:30:41;4.22;;;2.42;;
56927;SDS011;60850;52.502;13.426;2022-07-05T01:33:08;2.92;;;2.13;;
56927;SDS011;60850;52.502;13.426;2022-07-05T01:35:35;3.25;;;1.70;;
56927;SDS011;60850;52.502;13.426;2022-07-05T01:38:03;4.25;;;2.15;;
56927;SDS011;60850;52.502;13.426;2022-07-05T01:40:32;3.22;;;2.15;;
56927;SDS011;60850;52.502;13.426;2022-07-05T01:42:58;4.22;;;1.73;;
56927;SDS011;60850;52.502;13.426;2022-07-05T01:45:25;2.88;;;1.90;;
56927;SDS011;60850;52.502;13.426;2022-07-05T01:48:08;3.83;;;1.40;;
56927;SDS011;60850;52.502;13.426;2022-07-05T01:50:38;2.50;;;1.33;;
56927;SDS011;60850;52.502;13.426;2022-07-05T01:53:11;3.78;;;1.42;;
56927;SDS011;60850;52.502;13.426;2022-07-05T01:55:45;2.03;;;1.33;;
56927;SDS011;60850;52.502;13.426;2022-07-05T01:58:12;2.80;;;1.65;;
56927;SDS011;60850;52.502;13.426;2022-07-05T02:00:43;4.18;;;1.63;;
56927;SDS011;60850;52.502;13.426;2022-07-05T02:03:10;1.70;;;1.48;;
56927;SDS011;60850;52.502;13.426;2022-07-05T02:05:38;3.53;;;1.30;;
56927;SDS011;60850;52.502;13.426;2022-07-05T02:08:05;2.30;;;1.40;;
56927;SDS011;60850;52.502;13.426;2022-07-05T02:10:33;3.38;;;1.67;;
56927;SDS011;60850;52.502;13.426;2022-07-05T02:13:02;2.15;;;1.35;;
56927;SDS011;60850;52.502;13.426;2022-07-05T02:15:29;3.47;;;1.55;;
56927;SDS011;60850;52.502;13.426;2022-07-05T02:17:56;2.90;;;1.63;;
56927;SDS011;60850;52.502;13.426;2022-07-05T02:20:23;2.78;;;1.48;;
56927;SDS011;60850;52.502;13.426;2022-07-05T02:22:50;4.65;;;1.58;;
56927;SDS011;60850;52.502;13.426;2022-07-05T02:25:17;3.35;;;1.35;;
56927;SDS011;60850;52.502;13.426;2022-07-05T02:27:44;1.50;;;1.38;;
56927;SDS011;60850;52.502;13.426;2022-07-05T02:30:13;3.35;;;1.40;;
56927;SDS011;60850;52.502;13.426;2022-07-05T02:32:41;4.43;;;1.52;;
56927;SDS011;60850;52.502;13.426;2022-07-05T02:35:08;2.85;;;1.25;;
56927;SDS011;60850;52.502;13.426;2022-07-05T02:37:36;1.50;;;1.10;;
56927;SDS011;60850;52.502;13.426;2022-07-05T02:40:05;2.97;;;1.52;;
56927;SDS011;60850;52.502;13.426;2022-07-05T02:42:32;4.28;;;1.80;;
56927;SDS011;60850;52.502;13.426;2022-07-05T02:44:59;3.35;;;1.80;;
56927;SDS011;60850;52.502;13.426;2022-07-05T02:47:28;2.95;;;1.63;;
56927;SDS011;60850;52.502;13.426;2022-07-05T02:49:55;4.70;;;1.60;;
56927;SDS011;60850;52.502;13.426;2022-07-05T02:52:23;3.55;;;1.38;;
56927;SDS011;60850;52.502;13.426;2022-07-05T02:54:50;3.35;;;1.70;;
56927;SDS011;60850;52.502;13.426;2022-07-05T02:57:16;3.45;;;1.40;;
56927;SDS011;60850;52.502;13.426;2022-07-05T02:59:43;2.75;;;1.42;;
56927;SDS011;60850;52.502;13.426;2022-07-05T03:02:10;4.05;;;1.50;;
56927;SDS011;60850;52.502;13.426;2022-07-05T03:04:38;3.65;;;1.45;;
56927;SDS011;60850;52.502;13.426;2022-07-05T03:07:05;4.95;;;1.70;;
56927;SDS011;60850;52.502;13.426;2022-07-05T03:09:32;2.58;;;1.55;;
56927;SDS011;60850;52.502;13.426;2022-07-05T03:11:59;4.20;;;1.65;;
56927;SDS011;60850;52.502;13.426;2022-07-05T03:14:25;2.65;;;1.80;;
56927;SDS011;60850;52.502;13.426;2022-07-05T03:16:52;3.15;;;1.77;;
56927;SDS011;60850;52.502;13.426;2022-07-05T03:19:19;3.55;;;1.83;;
56927;SDS011;60850;52.502;13.426;2022-07-05T03:21:48;4.32;;;1.45;;
56927;SDS011;60850;52.502;13.426;2022-07-05T03:24:15;3.35;;;1.70;;
56927;SDS011;60850;52.502;13.426;2022-07-05T03:26:41;4.55;;;1.58;;
56927;SDS011;60850;52.502;13.426;2022-07-05T03:29:08;5.25;;;2.65;;
56927;SDS011;60850;52.502;13.426;2022-07-05T03:31:35;3.38;;;1.80;;
56927;SDS011;60850;52.502;13.426;2022-07-05T03:34:02;2.70;;;1.50;;
56927;SDS011;60850;52.502;13.426;2022-07-05T03:36:29;3.83;;;1.65;;
56927;SDS011;60850;52.502;13.426;2022-07-05T03:38:57;6.20;;;1.98;;
56927;SDS011;60850;52.502;13.426;2022-07-05T03:41:24;4.90;;;1.83;;
56927;SDS011;60850;52.502;13.426;2022-07-05T03:43:51;2.42;;;1.50;;
56927;SDS011;60850;52.502;13.426;2022-07-05T03:46:17;3.45;;;1.80;;
56927;SDS011;60850;52.502;13.426;2022-07-05T03:48:44;3.60;;;1.60;;
56927;SDS011;60850;52.502;13.426;2022-07-05T03:51:11;4.80;;;1.67;;
56927;SDS011;60850;52.502;13.426;2022-07-05T03:53:38;4.47;;;1.80;;
56927;SDS011;60850;52.502;13.426;2022-07-05T03:56:06;4.75;;;1.58;;
56927;SDS011;60850;52.502;13.426;2022-07-05T03:58:33;5.95;;;1.88;;
56927;SDS011;60850;52.502;13.426;2022-07-05T04:01:00;3.17;;;1.75;;
56927;SDS011;60850;52.502;13.426;2022-07-05T04:03:27;2.92;;;1.67;;
56927;SDS011;60850;52.502;13.426;2022-07-05T04:05:54;2.20;;;1.60;;
56927;SDS011;60850;52.502;13.426;2022-07-05T04:08:21;3.17;;;1.30;;
56927;SDS011;60850;52.502;13.426;2022-07-05T04:10:47;2.42;;;1.40;;
56927;SDS011;60850;52.502;13.426;2022-07-05T04:13:15;3.00;;;1.50;;
56927;SDS011;60850;52.502;13.426;2022-07-05T04:15:42;2.88;;;1.30;;
56927;SDS011;60850;52.502;13.426;2022-07-05T04:18:09;2.33;;;1.45;;
56927;SDS011;60850;52.502;13.426;2022-07-05T04:20:36;1.92;;;1.20;;
56927;SDS011;60850;52.502;13.426;2022-07-05T04:23:03;3.65;;;1.45;;
56927;SDS011;60850;52.502;13.426;2022-07-05T04:25:30;1.10;;;1.00;;
56927;SDS011;60850;52.502;13.426;2022-07-05T04:27:57;3.25;;;1.38;;
56927;SDS011;60850;52.502;13.426;2022-07-05T04:30:25;2.97;;;1.60;;
56927;SDS011;60850;52.502;13.426;2022-07-05T04:32:52;3.67;;;1.45;;
56927;SDS011;60850;52.502;13.426;2022-07-05T04:35:19;2.40;;;1.50;;
56927;SDS011;60850;52.502;13.426;2022-07-05T04:37:46;2.20;;;1.30;;
56927;SDS011;60850;52.502;13.426;2022-07-05T04:40:13;2.33;;;1.10;;
56927;SDS011;60850;52.502;13.426;2022-07-05T04:42:40;3.28;;;1.10;;
56927;SDS011;60850;52.502;13.426;2022-07-05T04:45:08;2.60;;;1.23;;
56927;SDS011;60850;52.502;13.426;2022-07-05T04:47:36;3.05;;;1.13;;
56927;SDS011;60850;52.502;13.426;2022-07-05T04:50:04;4.60;;;1.60;;
56927;SDS011;60850;52.502;13.426;2022-07-05T04:52:32;2.40;;;1.33;;
56927;SDS011;60850;52.502;13.426;2022-07-05T04:54:59;5.68;;;1.33;;
56927;SDS011;60850;52.502;13.426;2022-07-05T04:57:26;1.27;;;0.90;;
56927;SDS011;60850;52.502;13.426;2022-07-05T04:59:54;2.25;;;1.45;;
56927;SDS011;60850;52.502;13.426;2022-07-05T05:02:21;2.95;;;1.50;;
56927;SDS011;60850;52.502;13.426;2022-07-05T05:04:49;2.47;;;1.20;;
56927;SDS011;60850;52.502;13.426;2022-07-05T05:07:16;3.20;;;1.10;;
56927;SDS011;60850;52.502;13.426;2022-07-05T05:09:42;3.50;;;1.33;;
56927;SDS011;60850;52.502;13.426;2022-07-05T05:12:09;6.43;;;1.55;;
56927;SDS011;60850;52.502;13.426;2022-07-05T05:14:36;2.35;;;1.10;;
56927;SDS011;60850;52.502;13.426;2022-07-05T05:17:03;2.33;;;1.00;;
56927;SDS011;60850;52.502;13.426;2022-07-05T05:19:30;5.18;;;1.02;;
56927;SDS011;60850;52.502;13.426;2022-07-05T05:21:58;5.82;;;1.50;;
56927;SDS011;60850;52.502;13.426;2022-07-05T05:24:25;2.97;;;1.00;;
56927;SDS011;60850;52.502;13.426;2022-07-05T05:26:52;5.10;;;1.25;;
56927;SDS011;60850;52.502;13.426;2022-07-05T05:29:19;4.00;;;1.00;;
56927;SDS011;60850;52.502;13.426;2022-07-05T05:31:46;4.50;;;1.02;;
56927;SDS011;60850;52.502;13.426;2022-07-05T05:34:13;5.18;;;1.50;;
56927;SDS011;60850;52.502;13.426;2022-07-05T05:36:40;2.95;;;1.00;;
56927;SDS011;60850;52.502;13.426;2022-07-05T05:39:08;3.15;;;1.00;;
56927;SDS011;60850;52.502;13.426;2022-07-05T05:41:35;4.45;;;1.60;;
56927;SDS011;60850;52.502;13.426;2022-07-05T05:44:02;1.90;;;1.20;;
56927;SDS011;60850;52.502;13.426;2022-07-05T05:46:29;1.98;;;1.40;;
56927;SDS011;60850;52.502;13.426;2022-07-05T05:48:56;12.38;;;1.63;;
56927;SDS011;60850;52.502;13.426;2022-07-05T05:51:23;3.53;;;1.13;;
56927;SDS011;60850;52.502;13.426;2022-07-05T05:53:50;1.60;;;0.85;;
56927;SDS011;60850;52.502;13.426;2022-07-05T05:56:18;2.35;;;1.05;;
56927;SDS011;60850;52.502;13.426;2022-07-05T05:58:45;1.70;;;0.88;;
56927;SDS011;60850;52.502;13.426;2022-07-05T06:01:12;2.42;;;0.93;;
56927;SDS011;60850;52.502;13.426;2022-07-05T06:03:39;5.25;;;1.02;;
56927;SDS011;60850;52.502;13.426;2022-07-05T06:06:06;3.67;;;1.00;;
56927;SDS011;60850;52.502;13.426;2022-07-05T06:08:34;2.60;;;1.52;;
56927;SDS011;60850;52.502;13.426;2022-07-05T06:11:01;2.17;;;0.90;;
56927;SDS011;60850;52.502;13.426;2022-07-05T06:13:31;4.22;;;1.40;;
56927;SDS011;60850;52.502;13.426;2022-07-05T06:15:58;3.05;;;1.25;;
56927;SDS011;60850;52.502;13.426;2022-07-05T06:18:24;3.10;;;0.80;;
56927;SDS011;60850;52.502;13.426;2022-07-05T06:20:51;2.03;;;0.85;;
56927;SDS011;60850;52.502;13.426;2022-07-05T06:23:18;3.10;;;0.85;;
56927;SDS011;60850;52.502;13.426;2022-07-05T06:25:45;4.13;;;1.10;;
56927;SDS011;60850;52.502;13.426;2022-07-05T06:28:12;3.22;;;0.90;;
56927;SDS011;60850;52.502;13.426;2022-07-05T06:30:40;2.45;;;0.90;;
56927;SDS011;60850;52.502;13.426;2022-07-05T06:33:07;2.85;;;0.98;;
56927;SDS011;60850;52.502;13.426;2022-07-05T06:35:34;2.80;;;0.80;;
56927;SDS011;60850;52.502;13.426;2022-07-05T06:38:02;1.48;;;1.00;;
56927;SDS011;60850;52.502;13.426;2022-07-05T06:40:30;2.05;;;0.90;;
56927;SDS011;60850;52.502;13.426;2022-07-05T06:42:58;1.27;;;0.90;;
56927;SDS011;60850;52.502;13.426;2022-07-05T06:45:27;2.28;;;0.80;;
56927;SDS011;60850;52.502;13.426;2022-07-05T06:47:56;3.53;;;1.10;;
56927;SDS011;60850;52.502;13.426;2022-07-05T06:50:24;5.15;;;1.10;;
56927;SDS011;60850;52.502;13.426;2022-07-05T06:52:52;3.22;;;1.02;;
56927;SDS011;60850;52.502;13.426;2022-07-05T06:55:19;2.28;;;1.17;;
56927;SDS011;60850;52.502;13.426;2022-07-05T06:57:46;3.85;;;0.85;;
56927;SDS011;60850;52.502;13.426;2022-07-05T07:00:13;4.00;;;1.65;;
56927;SDS011;60850;52.502;13.426;2022-07-05T07:02:40;1.92;;;0.80;;
56927;SDS011;60850;52.502;13.426;2022-07-05T07:05:08;3.72;;;1.83;;
56927;SDS011;60850;52.502;13.426;2022-07-05T07:07:35;1.38;;;1.02;;
56927;SDS011;60850;52.502;13.426;2022-07-05T07:10:20;5.07;;;1.08;;
56927;SDS011;60850;52.502;13.426;2022-07-05T07:12:47;4.53;;;1.00;;
56927;SDS011;60850;52.502;13.426;2022-07-05T07:15:13;2.78;;;1.40;;
56927;SDS011;60850;52.502;13.426;2022-07-05T07:17:40;2.83;;;1.17;;
56927;SDS011;60850;52.502;13.426;2022-07-05T07:20:19;3.08;;;1.02;;
56927;SDS011;60850;52.502;13.426;2022-07-05T07:22:49;2.90;;;0.70;;
56927;SDS011;60850;52.502;13.426;2022-07-05T07:25:15;1.95;;;0.90;;
56927;SDS011;60850;52.502;13.426;2022-07-05T07:27:43;5.50;;;1.38;;
56927;SDS011;60850;52.502;13.426;2022-07-05T07:30:10;4.57;;;1.10;;
56927;SDS011;60850;52.502;13.426;2022-07-05T07:32:47;5.07;;;1.30;;
56927;SDS011;60850;52.502;13.426;2022-07-05T07:35:16;6.10;;;1.20;;
56927;SDS011;60850;52.502;13.426;2022-07-05T07:37:42;7.13;;;1.05;;
56927;SDS011;60850;52.502;13.426;2022-07-05T07:40:09;8.75;;;1.20;;
56927;SDS011;60850;52.502;13.426;2022-07-05T07:42:37;4.32;;;1.23;;
56927;SDS011;60850;52.502;13.426;2022-07-05T07:45:07;2.45;;;0.80;;
56927;SDS011;60850;52.502;13.426;2022-07-05T07:47:48;3.58;;;1.25;;
56927;SDS011;60850;52.502;13.426;2022-07-05T07:50:16;3.33;;;0.93;;
56927;SDS011;60850;52.502;13.426;2022-07-05T07:52:43;5.32;;;1.33;;
56927;SDS011;60850;52.502;13.426;2022-07-05T07:55:10;3.95;;;1.20;;
56927;SDS011;60850;52.502;13.426;2022-07-05T07:57:37;1.67;;;0.85;;
56927;SDS011;60850;52.502;13.426;2022-07-05T08:00:04;6.38;;;0.90;;
56927;SDS011;60850;52.502;13.426;2022-07-05T08:02:32;3.17;;;0.80;;
56927;SDS011;60850;52.502;13.426;2022-07-05T08:04:59;3.20;;;0.90;;
56927;SDS011;60850;52.502;13.426;2022-07-05T08:07:28;4.97;;;0.95;;
56927;SDS011;60850;52.502;13.426;2022-07-05T08:09:55;4.32;;;1.60;;
56927;SDS011;60850;52.502;13.426;2022-07-05T08:12:23;3.10;;;0.73;;
56927;SDS011;60850;52.502;13.426;2022-07-05T08:14:50;3.78;;;0.90;;
56927;SDS011;60850;52.502;13.426;2022-07-05T08:17:17;3.05;;;0.65;;
56927;SDS011;60850;52.502;13.426;2022-07-05T08:19:45;3.00;;;0.93;;
56927;SDS011;60850;52.502;13.426;2022-07-05T08:22:32;3.20;;;0.95;;
56927;SDS011;60850;52.502;13.426;2022-07-05T08:24:58;3.45;;;0.80;;
56927;SDS011;60850;52.502;13.426;2022-07-05T08:27:25;4.03;;;1.05;;
56927;SDS011;60850;52.502;13.426;2022-07-05T08:29:52;2.50;;;0.75;;
56927;SDS011;60850;52.502;13.426;2022-07-05T08:32:19;3.42;;;0.85;;
56927;SDS011;60850;52.502;13.426;2022-07-05T08:34:46;1.23;;;0.80;;
56927;SDS011;60850;52.502;13.426;2022-07-05T08:37:12;2.00;;;0.93;;
56927;SDS011;60850;52.502;13.426;2022-07-05T08:39:41;3.03;;;0.90;;
56927;SDS011;60850;52.502;13.426;2022-07-05T08:42:08;6.55;;;0.90;;
56927;SDS011;60850;52.502;13.426;2022-07-05T08:44:37;3.88;;;1.17;;
56927;SDS011;60850;52.502;13.426;2022-07-05T08:47:07;2.22;;;0.70;;
56927;SDS011;60850;52.502;13.426;2022-07-05T08:49:35;2.55;;;0.80;;
56927;SDS011;60850;52.502;13.426;2022-07-05T08:52:07;2.78;;;0.90;;
56927;SDS011;60850;52.502;13.426;2022-07-05T08:57:05;2.63;;;0.85;;
56927;SDS011;60850;52.502;13.426;2022-07-05T08:59:33;1.63;;;0.70;;
56927;SDS011;60850;52.502;13.426;2022-07-05T09:02:00;2.92;;;1.10;;
56927;SDS011;60850;52.502;13.426;2022-07-05T09:04:30;1.88;;;1.08;;
56927;SDS011;60850;52.502;13.426;2022-07-05T09:07:00;2.50;;;1.10;;
56927;SDS011;60850;52.502;13.426;2022-07-05T09:09:32;4.05;;;1.10;;
56927;SDS011;60850;52.502;13.426;2022-07-05T09:12:03;1.75;;;1.00;;
56927;SDS011;60850;52.502;13.426;2022-07-05T09:14:31;1.98;;;0.95;;
56927;SDS011;60850;52.502;13.426;2022-07-05T09:16:58;2.35;;;1.00;;
56927;SDS011;60850;52.502;13.426;2022-07-05T09:19:25;3.22;;;1.02;;
56927;SDS011;60850;52.502;13.426;2022-07-05T09:22:00;3.13;;;1.30;;
56927;SDS011;60850;52.502;13.426;2022-07-05T09:24:28;3.60;;;0.90;;
56927;SDS011;60850;52.502;13.426;2022-07-05T09:27:01;3.42;;;0.90;;
56927;SDS011;60850;52.502;13.426;2022-07-05T09:29:33;3.47;;;1.00;;
56927;SDS011;60850;52.502;13.426;2022-07-05T09:32:01;3.63;;;1.80;;
56927;SDS011;60850;52.502;13.426;2022-07-05T09:34:29;2.88;;;1.35;;
56927;SDS011;60850;52.502;13.426;2022-07-05T09:36:56;4.43;;;1.30;;
56927;SDS011;60850;52.502;13.426;2022-07-05T09:39:34;2.33;;;1.10;;
56927;SDS011;60850;52.502;13.426;2022-07-05T09:42:12;3.58;;;1.08;;
56927;SDS011;60850;52.502;13.426;2022-07-05T09:44:51;3.05;;;1.10;;
56927;SDS011;60850;52.502;13.426;2022-07-05T09:47:19;5.78;;;1.52;;
56927;SDS011;60850;52.502;13.426;2022-07-05T09:49:47;2.13;;;0.82;;
56927;SDS011;60850;52.502;13.426;2022-07-05T09:52:25;4.28;;;1.13;;
56927;SDS011;60850;52.502;13.426;2022-07-05T09:55:00;4.40;;;1.42;;
56927;SDS011;60850;52.502;13.426;2022-07-05T09:57:28;7.53;;;1.38;;
56927;SDS011;60850;52.502;13.426;2022-07-05T09:59:59;4.35;;;1.67;;
56927;SDS011;60850;52.502;13.426;2022-07-05T10:02:35;11.80;;;1.65;;
56927;SDS011;60850;52.502;13.426;2022-07-05T10:05:09;3.58;;;0.93;;
56927;SDS011;60850;52.502;13.426;2022-07-05T10:07:38;13.18;;;1.50;;
56927;SDS011;60850;52.502;13.426;2022-07-05T10:10:07;2.90;;;1.25;;
56927;SDS011;60850;52.502;13.426;2022-07-05T10:12:35;2.03;;;0.95;;
56927;SDS011;60850;52.502;13.426;2022-07-05T10:15:05;5.13;;;1.15;;
56927;SDS011;60850;52.502;13.426;2022-07-05T10:17:36;8.27;;;1.35;;
56927;SDS011;60850;52.502;13.426;2022-07-05T10:20:08;10.27;;;2.03;;
56927;SDS011;60850;52.502;13.426;2022-07-05T10:22:39;3.90;;;1.13;;
56927;SDS011;60850;52.502;13.426;2022-07-05T10:25:08;6.43;;;1.45;;
56927;SDS011;60850;52.502;13.426;2022-07-05T10:27:35;6.82;;;1.75;;
56927;SDS011;60850;52.502;13.426;2022-07-05T10:30:05;5.72;;;1.38;;
56927;SDS011;60850;52.502;13.426;2022-07-05T10:32:33;4.00;;;1.80;;
56927;SDS011;60850;52.502;13.426;2022-07-05T10:35:01;75.10;;;6.70;;
56927;SDS011;60850;52.502;13.426;2022-07-05T10:37:31;6.35;;;1.85;;
56927;SDS011;60850;52.502;13.426;2022-07-05T10:39:59;3.25;;;1.48;;
56927;SDS011;60850;52.502;13.426;2022-07-05T10:42:29;5.30;;;1.35;;
56927;SDS011;60850;52.502;13.426;2022-07-05T10:44:59;5.72;;;1.60;;
56927;SDS011;60850;52.502;13.426;2022-07-05T10:47:28;4.53;;;1.40;;
56927;SDS011;60850;52.502;13.426;2022-07-05T10:50:01;7.22;;;2.10;;
56927;SDS011;60850;52.502;13.426;2022-07-05T10:52:29;4.53;;;1.40;;
56927;SDS011;60850;52.502;13.426;2022-07-05T11:00:45;3.58;;;1.33;;
56927;SDS011;60850;52.502;13.426;2022-07-05T11:03:31;4.10;;;1.90;;
56927;SDS011;60850;52.502;13.426;2022-07-05T11:05:59;11.77;;;2.63;;
56927;SDS011;60850;52.502;13.426;2022-07-05T11:08:27;3.58;;;1.40;;
56927;SDS011;60850;52.502;13.426;2022-07-05T11:11:10;10.13;;;2.15;;
56927;SDS011;60850;52.502;13.426;2022-07-05T11:13:39;3.60;;;1.98;;
56927;SDS011;60850;52.502;13.426;2022-07-05T11:16:21;3.65;;;1.40;;
56927;SDS011;60850;52.502;13.426;2022-07-05T11:18:50;4.47;;;1.40;;
56927;SDS011;60850;52.502;13.426;2022-07-05T11:21:18;2.75;;;1.38;;
56927;SDS011;60850;52.502;13.426;2022-07-05T11:23:46;2.85;;;1.20;;
56927;SDS011;60850;52.502;13.426;2022-07-05T11:26:15;9.77;;;1.30;;
56927;SDS011;60850;52.502;13.426;2022-07-05T11:28:44;2.85;;;1.35;;
56927;SDS011;60850;52.502;13.426;2022-07-05T11:31:12;4.38;;;1.10;;
56927;SDS011;60850;52.502;13.426;2022-07-05T11:34:07;4.13;;;1.50;;
56927;SDS011;60850;52.502;13.426;2022-07-05T11:36:38;2.15;;;1.20;;
56927;SDS011;60850;52.502;13.426;2022-07-05T11:39:12;2.28;;;1.42;;
56927;SDS011;60850;52.502;13.426;2022-07-05T11:41:42;4.68;;;1.48;;
56927;SDS011;60850;52.502;13.426;2022-07-05T11:44:11;3.72;;;2.35;;
56927;SDS011;60850;52.502;13.426;2022-07-05T11:46:40;2.95;;;1.27;;
56927;SDS011;60850;52.502;13.426;2022-07-05T11:49:08;2.08;;;1.10;;
56927;SDS011;60850;52.502;13.426;2022-07-05T11:51:35;2.70;;;1.08;;
56927;SDS011;60850;52.502;13.426;2022-07-05T11:54:02;3.17;;;1.38;;
56927;SDS011;60850;52.502;13.426;2022-07-05T11:56:30;2.33;;;1.25;;
56927;SDS011;60850;52.502;13.426;2022-07-05T11:58:57;3.67;;;1.33;;
56927;SDS011;60850;52.502;13.426;2022-07-05T12:01:24;6.50;;;1.40;;
56927;SDS011;60850;52.502;13.426;2022-07-05T12:03:54;2.85;;;1.48;;
56927;SDS011;60850;52.502;13.426;2022-07-05T12:06:23;4.18;;;1.50;;
56927;SDS011;60850;52.502;13.426;2022-07-05T12:09:03;8.95;;;1.40;;
56927;SDS011;60850;52.502;13.426;2022-07-05T12:11:31;5.88;;;1.60;;
56927;SDS011;60850;52.502;13.426;2022-07-05T12:14:21;4.22;;;1.38;;
56927;SDS011;60850;52.502;13.426;2022-07-05T12:16:48;5.80;;;1.50;;
56927;SDS011;60850;52.502;13.426;2022-07-05T12:19:25;2.85;;;1.20;;
56927;SDS011;60850;52.502;13.426;2022-07-05T12:21:54;3.17;;;1.33;;
56927;SDS011;60850;52.502;13.426;2022-07-05T12:24:21;4.20;;;1.40;;
56927;SDS011;60850;52.502;13.426;2022-07-05T12:26:49;1.48;;;0.93;;
56927;SDS011;60850;52.502;13.426;2022-07-05T12:29:17;2.55;;;1.20;;
56927;SDS011;60850;52.502;13.426;2022-07-05T12:32:00;3.05;;;1.30;;
56927;SDS011;60850;52.502;13.426;2022-07-05T12:34:28;4.55;;;1.45;;
56927;SDS011;60850;52.502;13.426;2022-07-05T12:36:57;5.72;;;1.40;;
56927;SDS011;60850;52.502;13.426;2022-07-05T12:39:24;4.03;;;1.42;;
56927;SDS011;60850;52.502;13.426;2022-07-05T12:41:51;5.30;;;1.55;;
56927;SDS011;60850;52.502;13.426;2022-07-05T12:44:19;2.10;;;1.25;;
56927;SDS011;60850;52.502;13.426;2022-07-05T12:46:46;3.55;;;0.95;;
56927;SDS011;60850;52.502;13.426;2022-07-05T12:49:16;2.50;;;1.20;;
56927;SDS011;60850;52.502;13.426;2022-07-05T12:51:44;4.18;;;1.15;;
56927;SDS011;60850;52.502;13.426;2022-07-05T12:54:20;5.05;;;1.40;;
56927;SDS011;60850;52.502;13.426;2022-07-05T12:57:05;5.65;;;1.30;;
56927;SDS011;60850;52.502;13.426;2022-07-05T12:59:56;2.72;;;1.55;;
56927;SDS011;60850;52.502;13.426;2022-07-05T13:04:59;2.35;;;1.10;;
56927;SDS011;60850;52.502;13.426;2022-07-05T13:07:26;1.00;;;0.90;;
56927;SDS011;60850;52.502;13.426;2022-07-05T13:09:55;2.20;;;1.33;;
56927;SDS011;60850;52.502;13.426;2022-07-05T13:12:38;1.95;;;1.25;;
56927;SDS011;60850;52.502;13.426;2022-07-05T13:15:05;4.22;;;1.75;;
56927;SDS011;60850;52.502;13.426;2022-07-05T13:17:33;1.80;;;1.25;;
56927;SDS011;60850;52.502;13.426;2022-07-05T13:20:00;5.88;;;1.75;;
56927;SDS011;60850;52.502;13.426;2022-07-05T13:22:28;6.60;;;1.20;;
56927;SDS011;60850;52.502;13.426;2022-07-05T13:24:57;2.50;;;1.27;;
56927;SDS011;60850;52.502;13.426;2022-07-05T13:27:24;2.25;;;1.25;;
56927;SDS011;60850;52.502;13.426;2022-07-05T13:29:50;2.20;;;1.05;;
56927;SDS011;60850;52.502;13.426;2022-07-05T13:32:17;4.10;;;1.90;;
56927;SDS011;60850;52.502;13.426;2022-07-05T13:34:47;4.05;;;1.50;;
56927;SDS011;60850;52.502;13.426;2022-07-05T13:37:14;4.65;;;1.20;;
56927;SDS011;60850;52.502;13.426;2022-07-05T13:39:41;3.83;;;1.30;;
56927;SDS011;60850;52.502;13.426;2022-07-05T13:42:09;1.98;;;1.08;;
56927;SDS011;60850;52.502;13.426;2022-07-05T13:44:36;3.30;;;1.38;;
56927;SDS011;60850;52.502;13.426;2022-07-05T13:47:03;2.45;;;1.33;;
56927;SDS011;60850;52.502;13.426;2022-07-05T13:49:31;2.45;;;1.50;;
56927;SDS011;60850;52.502;13.426;2022-07-05T13:51:58;3.95;;;1.25;;
56927;SDS011;60850;52.502;13.426;2022-07-05T13:54:26;4.15;;;1.30;;
56927;SDS011;60850;52.502;13.426;2022-07-05T13:56:53;2.95;;;1.33;;
56927;SDS011;60850;52.502;13.426;2022-07-05T13:59:21;1.73;;;1.15;;
56927;SDS011;60850;52.502;13.426;2022-07-05T14:01:48;4.38;;;1.38;;
56927;SDS011;60850;52.502;13.426;2022-07-05T14:04:15;4.25;;;1.33;;
56927;SDS011;60850;52.502;13.426;2022-07-05T14:06:42;3.90;;;1.30;;
56927;SDS011;60850;52.502;13.426;2022-07-05T14:09:08;3.03;;;1.20;;
56927;SDS011;60850;52.502;13.426;2022-07-05T14:11:35;3.72;;;1.20;;
56927;SDS011;60850;52.502;13.426;2022-07-05T14:14:02;2.65;;;1.02;;
56927;SDS011;60850;52.502;13.426;2022-07-05T14:16:30;4.38;;;1.60;;
56927;SDS011;60850;52.502;13.426;2022-07-05T14:18:57;4.68;;;1.52;;
56927;SDS011;60850;52.502;13.426;2022-07-05T14:21:24;1.95;;;1.27;;
56927;SDS011;60850;52.502;13.426;2022-07-05T14:23:51;1.63;;;1.00;;
56927;SDS011;60850;52.502;13.426;2022-07-05T14:26:18;3.03;;;1.35;;
56927;SDS011;60850;52.502;13.426;2022-07-05T14:28:45;3.42;;;1.30;;
56927;SDS011;60850;52.502;13.426;2022-07-05T14:31:12;1.33;;;1.00;;
56927;SDS011;60850;52.502;13.426;2022-07-05T14:33:40;4.65;;;1.10;;
56927;SDS011;60850;52.502;13.426;2022-07-05T14:36:07;2.28;;;1.30;;
56927;SDS011;60850;52.502;13.426;2022-07-05T14:38:34;3.22;;;1.02;;
56927;SDS011;60850;52.502;13.426;2022-07-05T14:41:01;5.82;;;1.20;;
56927;SDS011;60850;52.502;13.426;2022-07-05T14:43:28;2.38;;;1.10;;
56927;SDS011;60850;52.502;13.426;2022-07-05T14:45:55;2.75;;;1.00;;
56927;SDS011;60850;52.502;13.426;2022-07-05T14:48:22;2.47;;;1.20;;
56927;SDS011;60850;52.502;13.426;2022-07-05T14:50:50;3.63;;;1.30;;
56927;SDS011;60850;52.502;13.426;2022-07-05T14:53:17;3.05;;;1.17;;